Time;durP1;ratioP1;P1;durP2;ratioP2;P2;SDS_P1;SDS_P2;PMS_P1;PMS_P2;Temp;Humidity;BMP_temperature;BMP_pressure;BME280_temperature;BME280_humidity;BME280_pressure;Samples;Min_cycle;Max_cycle;Signal;HPM_P1;HPM_P2
2021/10/29 00:01:05;;;;;;;19.88;12.55;;;8.50;79.70;;;;;;5094708;28;20024;-78
2021/10/29 00:03:30;;;;;;;19.52;11.60;;;8.40;80.10;;;;;;5094376;28;20012;-77
2021/10/29 00:05:56;;;;;;;17.10;11.30;;;8.20;80.60;;;;;;5094580;28;20461;-76
2021/10/29 00:08:21;;;;;;;15.13;10.20;;;8.00;81.50;;;;;;5094656;28;20483;-76
2021/10/29 00:10:48;;;;;;;13.40;7.25;;;7.90;82.00;;;;;;5094557;28;20032;-77
2021/10/29 00:13:13;;;;;;;13.90;8.32;;;7.80;82.20;;;;;;5094493;28;20499;-75
2021/10/29 00:15:39;;;;;;;15.13;9.27;;;7.70;82.40;;;;;;5094393;28;20050;-77
2021/10/29 00:18:05;;;;;;;17.38;10.82;;;7.80;82.70;;;;;;5076051;28;20032;-76
2021/10/29 00:20:31;;;;;;;17.08;10.15;;;7.80;82.50;;;;;;5094258;28;20042;-75
2021/10/29 00:22:57;;;;;;;14.00;8.05;;;7.90;82.20;;;;;;5094266;28;20024;-76
2021/10/29 00:25:22;;;;;;;15.57;7.68;;;8.00;81.50;;;;;;5094236;28;20023;-75
2021/10/29 00:27:48;;;;;;;13.43;8.75;;;7.90;81.30;;;;;;5094171;28;20031;-74
2021/10/29 00:30:14;;;;;;;12.85;8.40;;;8.00;81.50;;;;;;5093326;28;20082;-76
2021/10/29 00:32:39;;;;;;;16.17;9.35;;;7.90;81.40;;;;;;5094210;28;20020;-77
2021/10/29 00:35:05;;;;;;;14.77;9.15;;;7.90;81.30;;;;;;5094411;28;20372;-78
2021/10/29 00:37:38;;;;;;;14.20;9.65;;;7.90;81.30;;;;;;5093779;28;20036;-78
2021/10/29 00:40:09;;;;;;;15.77;10.07;;;7.90;81.60;;;;;;5093902;28;20042;-76
2021/10/29 00:42:35;;;;;;;17.40;10.18;;;7.80;81.50;;;;;;5093742;28;20507;-77
2021/10/29 00:45:02;;;;;;;16.15;8.82;;;7.80;81.30;;;;;;5093805;28;20065;-77
2021/10/29 00:47:27;;;;;;;15.13;9.63;;;7.70;81.50;;;;;;5093771;28;20381;-78
2021/10/29 00:49:53;;;;;;;14.73;9.48;;;7.80;81.30;;;;;;5093641;28;20016;-76
2021/10/29 00:52:19;;;;;;;12.90;8.80;;;7.80;81.00;;;;;;5093928;28;20101;-77
2021/10/29 00:54:44;;;;;;;12.40;6.90;;;7.90;81.40;;;;;;5075414;28;20107;-77
2021/10/29 00:57:10;;;;;;;12.00;7.82;;;8.00;79.90;;;;;;5093517;28;20036;-78
2021/10/29 00:59:36;;;;;;;11.70;7.78;;;8.00;79.80;;;;;;5093451;28;20357;-77
2021/10/29 01:02:01;;;;;;;14.23;9.10;;;7.90;79.70;;;;;;5093554;28;20024;-78
2021/10/29 01:04:27;;;;;;;14.27;7.88;;;8.00;79.50;;;;;;5093385;28;20028;-79
2021/10/29 01:06:53;;;;;;;15.45;10.00;;;8.00;79.40;;;;;;5093179;28;20499;-79
2021/10/29 01:09:19;;;;;;;22.80;12.18;;;8.00;79.40;;;;;;5093438;28;20035;-78
2021/10/29 01:11:44;;;;;;;16.92;11.05;;;8.00;79.70;;;;;;5093332;28;20024;-77
2021/10/29 01:14:11;;;;;;;18.95;11.75;;;8.00;80.30;;;;;;5093316;28;20027;-79
2021/10/29 01:16:37;;;;;;;19.08;12.55;;;8.00;80.50;;;;;;5093016;28;20527;-80
2021/10/29 01:19:03;;;;;;;16.88;10.30;;;8.00;80.50;;;;;;5093163;28;20121;-78
2021/10/29 01:21:29;;;;;;;12.93;7.85;;;7.90;79.80;;;;;;5093271;28;20024;-79
2021/10/29 01:23:55;;;;;;;17.48;7.72;;;7.90;78.90;;;;;;5093140;28;20401;-77
2021/10/29 01:26:20;;;;;;;12.10;7.57;;;7.90;78.50;;;;;;5093225;28;20048;-78
2021/10/29 01:28:46;;;;;;;11.38;7.15;;;7.80;78.10;;;;;;5093388;28;20032;-78
2021/10/29 01:31:13;;;;;;;12.38;7.28;;;7.70;77.70;;;;;;5116832;28;20083;-74
2021/10/29 01:33:39;;;;;;;11.13;6.13;;;7.70;77.20;;;;;;5104358;28;20080;-76
2021/10/29 01:36:05;;;;;;;9.48;6.60;;;7.50;77.30;;;;;;5093456;28;20543;-78
2021/10/29 01:38:36;;;;;;;10.77;7.60;;;7.50;77.50;;;;;;5092887;28;20040;-73
2021/10/29 01:41:03;;;;;;;9.05;6.47;;;7.40;77.60;;;;;;5094204;28;20025;-74
2021/10/29 01:43:30;;;;;;;11.55;6.57;;;7.40;77.60;;;;;;5097193;28;20031;-74
2021/10/29 01:45:56;;;;;;;11.50;6.47;;;7.40;77.50;;;;;;5097204;28;20229;-75
2021/10/29 01:48:25;;;;;;;12.57;6.25;;;7.30;78.20;;;;;;5097224;28;20031;-75
2021/10/29 01:50:51;;;;;;;10.07;6.72;;;7.30;78.50;;;;;;5097012;28;20492;-73
2021/10/29 01:53:16;;;;;;;10.63;6.63;;;7.30;78.30;;;;;;5097076;28;20087;-74
2021/10/29 01:55:42;;;;;;;12.80;6.90;;;7.30;78.00;;;;;;5096903;28;20031;-73
2021/10/29 01:58:08;;;;;;;10.90;6.50;;;7.20;77.70;;;;;;5097142;28;20472;-74
2021/10/29 02:00:34;;;;;;;11.40;6.95;;;7.00;77.60;;;;;;5096851;28;20020;-76
2021/10/29 02:02:59;;;;;;;10.60;6.38;;;6.90;78.20;;;;;;5097079;28;20043;-73
2021/10/29 02:05:25;;;;;;;11.30;6.40;;;7.00;78.80;;;;;;5096925;28;20024;-73
2021/10/29 02:07:51;;;;;;;11.07;7.53;;;7.00;78.70;;;;;;5096803;28;20472;-73
2021/10/29 02:10:16;;;;;;;13.85;7.43;;;7.00;78.60;;;;;;5097425;28;20103;-79
2021/10/29 02:12:42;;;;;;;11.05;7.45;;;7.00;78.50;;;;;;5100486;28;20407;-79
2021/10/29 02:15:08;;;;;;;9.60;6.78;;;6.90;78.40;;;;;;5102133;28;20059;-79
2021/10/29 02:17:34;;;;;;;9.50;6.65;;;6.90;78.50;;;;;;5100572;28;20051;-79
2021/10/29 02:20:01;;;;;;;11.27;7.20;;;6.90;78.40;;;;;;5097565;28;20024;-79
2021/10/29 02:22:26;;;;;;;12.38;7.60;;;6.90;78.20;;;;;;5096731;28;20024;-79
2021/10/29 02:24:52;;;;;;;11.15;7.10;;;6.90;78.30;;;;;;5096820;28;20027;-79
2021/10/29 02:27:17;;;;;;;10.80;6.82;;;6.80;78.80;;;;;;5102032;28;20468;-78
2021/10/29 02:29:43;;;;;;;12.05;7.88;;;6.80;79.20;;;;;;5096696;28;20111;-78
2021/10/29 02:32:09;;;;;;;13.13;8.15;;;6.80;80.30;;;;;;5097006;28;20455;-78
2021/10/29 02:34:35;;;;;;;13.60;9.23;;;6.70;81.10;;;;;;5096469;28;20024;-77
2021/10/29 02:37:00;;;;;;;13.77;9.10;;;6.70;81.70;;;;;;5096476;28;20450;-79
2021/10/29 02:39:26;;;;;;;18.40;9.90;;;6.70;82.00;;;;;;5096391;28;20396;-80
2021/10/29 02:41:52;;;;;;;14.85;10.60;;;6.70;82.00;;;;;;5096487;28;20024;-78
2021/10/29 02:44:17;;;;;;;21.75;12.27;;;6.80;82.00;;;;;;5096284;28;20077;-79
2021/10/29 02:46:43;;;;;;;18.63;11.52;;;6.80;82.20;;;;;;5096196;28;20028;-79
2021/10/29 02:49:09;;;;;;;18.90;11.98;;;6.80;82.60;;;;;;5096153;28;20021;-79
2021/10/29 02:51:35;;;;;;;19.08;11.45;;;6.70;82.90;;;;;;5096046;28;20052;-79
2021/10/29 02:54:01;;;;;;;19.67;12.52;;;6.70;82.80;;;;;;5095232;28;20024;-79
2021/10/29 02:56:26;;;;;;;18.50;12.18;;;6.70;83.20;;;;;;5095963;28;20047;-79
2021/10/29 02:58:52;;;;;;;20.63;11.77;;;6.70;83.30;;;;;;5095874;28;20035;-79
2021/10/29 03:01:18;;;;;;;19.88;12.30;;;6.80;83.10;;;;;;5095835;28;20032;-80
2021/10/29 03:03:44;;;;;;;19.48;11.73;;;6.70;83.00;;;;;;5095928;28;20035;-79
2021/10/29 03:06:09;;;;;;;18.73;11.43;;;6.70;83.00;;;;;;5095629;28;20027;-79
2021/10/29 03:08:35;;;;;;;18.38;11.93;;;6.80;83.10;;;;;;5095758;28;20024;-79
2021/10/29 03:11:01;;;;;;;21.50;13.05;;;6.80;83.10;;;;;;5095630;28;20358;-79
2021/10/29 03:13:27;;;;;;;20.05;12.52;;;6.70;83.30;;;;;;5095528;28;20081;-79
2021/10/29 03:15:53;;;;;;;21.35;13.15;;;6.70;83.50;;;;;;5077115;28;20031;-79
2021/10/29 03:18:19;;;;;;;20.27;12.93;;;6.70;83.80;;;;;;5095557;28;20032;-79
2021/10/29 03:20:45;;;;;;;20.13;12.70;;;6.70;83.70;;;;;;5096236;28;20024;-78
2021/10/29 03:23:13;;;;;;;20.80;12.10;;;6.70;83.50;;;;;;5095438;28;20452;-79
2021/10/29 03:25:40;;;;;;;18.02;11.88;;;6.80;83.40;;;;;;5095318;28;20012;-78
2021/10/29 03:28:06;;;;;;;20.00;12.68;;;6.80;83.00;;;;;;5095338;28;20028;-78
2021/10/29 03:30:33;;;;;;;23.80;14.10;;;6.80;82.80;;;;;;5095222;28;20032;-79
2021/10/29 03:32:58;;;;;;;18.55;12.02;;;6.80;82.50;;;;;;5095274;28;20028;-79
2021/10/29 03:35:24;;;;;;;23.30;12.70;;;6.70;82.70;;;;;;5095168;28;20074;-78
2021/10/29 03:38:02;;;;;;;21.65;11.50;;;6.70;82.90;;;;;;5094949;28;20476;-78
2021/10/29 03:43:21;;;;;;;16.70;9.32;;;6.50;82.30;;;;;;5095320;28;20055;-79
2021/10/29 03:45:59;;;;;;;15.63;8.77;;;6.40;82.10;;;;;;5094885;28;20027;-79
2021/10/29 03:49:19;;;;;;;15.02;9.55;;;6.40;81.90;;;;;;5094997;28;20082;-79
2021/10/29 03:53:59;;;;;;;;;;;6.40;82.00;;;;;;5095227;28;19942;-78
2021/10/29 03:56:26;;;;;;;16.48;10.00;;;6.40;82.70;;;;;;5094427;28;19915;-79
2021/10/29 03:58:55;;;;;;;23.13;11.43;;;6.30;83.20;;;;;;5076526;28;20024;-79
2021/10/29 04:01:21;;;;;;;17.25;10.70;;;6.30;83.30;;;;;;5094574;28;20012;-79
2021/10/29 04:03:47;;;;;;;16.77;10.70;;;6.30;83.40;;;;;;5094285;28;20384;-73
2021/10/29 04:06:13;;;;;;;17.17;10.13;;;6.20;83.70;;;;;;5094422;28;20024;-73
2021/10/29 04:08:39;;;;;;;15.05;9.20;;;6.30;83.80;;;;;;5094438;28;20026;-73
2021/10/29 04:11:06;;;;;;;16.67;9.05;;;6.40;83.60;;;;;;5094499;28;20028;-75
2021/10/29 04:13:37;;;;;;;14.20;9.25;;;6.40;83.20;;;;;;5094409;28;20103;-73
2021/10/29 04:16:03;;;;;;;21.00;9.23;;;6.50;82.90;;;;;;5076124;28;20029;-73
2021/10/29 04:18:29;;;;;;;17.60;9.27;;;6.50;82.40;;;;;;5094265;28;20019;-73
2021/10/29 04:20:56;;;;;;;16.05;10.30;;;6.50;82.00;;;;;;5105022;28;20016;-74
2021/10/29 04:23:21;;;;;;;16.98;10.45;;;6.50;81.80;;;;;;5097947;28;20024;-74
2021/10/29 04:25:47;;;;;;;21.58;10.77;;;6.50;81.40;;;;;;5094270;28;20028;-74
2021/10/29 04:28:13;;;;;;;16.38;9.52;;;6.50;81.50;;;;;;5094093;28;20020;-74
2021/10/29 04:30:42;;;;;;;17.88;10.27;;;6.50;81.00;;;;;;5093899;28;20016;-74
2021/10/29 04:33:08;;;;;;;16.58;9.18;;;6.50;81.00;;;;;;5094057;28;20024;-74
2021/10/29 04:35:35;;;;;;;14.65;9.18;;;6.50;81.00;;;;;;5093916;28;20024;-74
2021/10/29 04:38:02;;;;;;;15.18;8.45;;;6.40;80.90;;;;;;5093729;28;20031;-74
2021/10/29 04:40:28;;;;;;;13.40;8.65;;;6.40;81.30;;;;;;5093600;28;20048;-74
2021/10/29 04:42:53;;;;;;;14.35;9.25;;;6.40;81.60;;;;;;5093870;28;20028;-73
2021/10/29 04:45:19;;;;;;;12.55;8.00;;;6.30;82.00;;;;;;5093750;28;20384;-74
2021/10/29 04:47:45;;;;;;;15.57;7.68;;;6.30;82.10;;;;;;5093636;28;20032;-74
2021/10/29 04:50:11;;;;;;;9.95;6.70;;;6.40;81.90;;;;;;5093544;28;20016;-74
2021/10/29 04:52:37;;;;;;;14.02;7.50;;;6.40;82.00;;;;;;5093519;28;20472;-74
2021/10/29 04:55:03;;;;;;;13.27;7.30;;;6.40;81.70;;;;;;5093701;28;20024;-73
2021/10/29 04:57:28;;;;;;;12.02;6.60;;;6.50;81.30;;;;;;5093314;28;20032;-74
2021/10/29 04:59:54;;;;;;;13.98;7.45;;;6.40;81.00;;;;;;5093445;28;20141;-74
2021/10/29 05:02:20;;;;;;;13.43;8.18;;;6.40;80.70;;;;;;5093531;28;20040;-74
2021/10/29 05:04:46;;;;;;;17.08;9.15;;;6.40;80.70;;;;;;5093457;28;20028;-74
2021/10/29 05:07:11;;;;;;;17.58;9.30;;;6.30;80.70;;;;;;5093221;28;20024;-72
2021/10/29 05:09:37;;;;;;;17.38;8.85;;;6.20;81.00;;;;;;5093579;28;20051;-73
2021/10/29 05:12:02;;;;;;;19.45;9.15;;;6.10;81.70;;;;;;5093086;28;20472;-73
2021/10/29 05:14:28;;;;;;;16.77;7.95;;;6.10;82.20;;;;;;5093016;28;20508;-72
2021/10/29 05:16:53;;;;;;;13.90;6.70;;;6.10;82.50;;;;;;5092222;28;20073;-72
2021/10/29 05:19:19;;;;;;;16.08;7.15;;;6.00;82.60;;;;;;5093364;28;20354;-73
2021/10/29 05:21:45;;;;;;;14.75;6.40;;;6.10;82.60;;;;;;5092709;28;20538;-76
2021/10/29 05:24:10;;;;;;;10.25;6.55;;;6.10;82.50;;;;;;5092750;28;20016;-74
2021/10/29 05:26:37;;;;;;;14.88;7.13;;;6.10;82.20;;;;;;5092132;28;20028;-74
2021/10/29 05:29:03;;;;;;;11.18;6.40;;;6.20;81.80;;;;;;5092604;28;20409;-77
2021/10/29 05:31:30;;;;;;;10.20;6.22;;;6.20;81.70;;;;;;5092614;28;20020;-75
2021/10/29 05:33:55;;;;;;;6.88;4.82;;;6.20;81.60;;;;;;5092253;28;20016;-77
2021/10/29 05:36:21;;;;;;;7.03;4.97;;;6.10;81.60;;;;;;5092223;28;20031;-75
2021/10/29 05:38:47;;;;;;;9.30;5.68;;;6.40;84.40;;;;;;5092328;28;20043;-74
2021/10/29 05:41:13;;;;;;;11.18;5.32;;;6.60;82.80;;;;;;5092653;28;20020;-74
2021/10/29 05:43:38;;;;;;;9.43;5.45;;;6.70;81.60;;;;;;5092488;28;20415;-74
2021/10/29 05:46:04;;;;;;;13.27;6.28;;;6.70;81.70;;;;;;5092498;28;20028;-74
2021/10/29 05:48:30;;;;;;;10.52;5.80;;;6.80;80.60;;;;;;5092659;28;20353;-74
2021/10/29 05:50:56;;;;;;;9.70;6.18;;;6.80;80.60;;;;;;5092707;28;20021;-74
2021/10/29 05:55:56;;;;;;;8.82;5.32;;;6.90;79.50;;;;;;5092447;28;20069;-75
2021/10/29 05:58:21;;;;;;;10.13;5.82;;;6.90;79.40;;;;;;5092686;28;20111;-74
2021/10/29 06:00:47;;;;;;;10.05;5.30;;;7.10;79.60;;;;;;5092528;28;20032;-73
2021/10/29 06:03:13;;;;;;;9.50;5.38;;;7.20;78.30;;;;;;5092561;28;20509;-74
2021/10/29 06:05:39;;;;;;;10.98;5.43;;;7.20;78.00;;;;;;5092262;28;20028;-74
2021/10/29 06:08:05;;;;;;;7.22;4.53;;;7.20;77.70;;;;;;5084384;28;20021;-75
2021/10/29 06:10:31;;;;;;;11.35;4.68;;;7.20;78.00;;;;;;5087973;28;20396;-73
2021/10/29 06:12:56;;;;;;;9.60;5.40;;;7.30;77.30;;;;;;5092385;28;20560;-73
2021/10/29 06:15:23;;;;;;;10.27;5.32;;;7.30;76.90;;;;;;5092085;28;20036;-73
2021/10/29 06:17:48;;;;;;;12.93;5.80;;;7.20;76.70;;;;;;5092444;28;20024;-75
2021/10/29 06:20:14;;;;;;;13.50;7.43;;;7.20;77.00;;;;;;5092190;28;20024;-75
2021/10/29 06:22:45;;;;;;;15.80;8.15;;;7.30;77.00;;;;;;5092225;28;20020;-73
2021/10/29 06:25:14;;;;;;;18.45;8.75;;;7.30;76.50;;;;;;5093298;28;20024;-73
2021/10/29 06:30:08;;;;;;;11.50;6.53;;;7.40;77.00;;;;;;5096035;28;20047;-74
2021/10/29 06:32:35;;;;;;;9.57;5.75;;;7.50;75.90;;;;;;5095702;28;20016;-75
2021/10/29 06:35:01;;;;;;;14.80;6.97;;;7.60;76.10;;;;;;5095923;28;20027;-75
2021/10/29 06:37:26;;;;;;;15.38;7.65;;;7.80;74.70;;;;;;5095934;28;20036;-75
2021/10/29 06:39:52;;;;;;;13.05;6.95;;;7.80;74.60;;;;;;5093654;28;20152;-75
2021/10/29 06:42:23;;;;;;;16.13;7.85;;;7.80;74.20;;;;;;5095351;28;20032;-75
2021/10/29 06:45:04;;;;;;;9.68;5.47;;;7.70;74.20;;;;;;5095398;28;20032;-74
2021/10/29 07:01:15;;;;;;;9.63;5.40;;;8.60;71.30;;;;;;5095575;28;20089;-73
2021/10/29 07:11:58;;;;;;;11.48;5.45;;;8.80;71.70;;;;;;5095142;28;20058;-72
2021/10/29 07:41:50;;;;;;;30.73;14.73;;;9.30;70.70;;;;;;5095007;28;20043;-74
2021/10/29 07:44:16;;;;;;;25.40;12.90;;;9.10;72.30;;;;;;5076643;28;20476;-75
2021/10/29 07:46:42;;;;;;;21.83;12.35;;;9.20;72.20;;;;;;5094432;28;20032;-75
2021/10/29 07:49:08;;;;;;;22.92;10.50;;;9.30;71.90;;;;;;5094565;28;20472;-74
2021/10/29 07:51:36;;;;;;;19.52;10.88;;;9.50;71.50;;;;;;5094286;28;20031;-74
2021/10/29 07:54:02;;;;;;;16.75;8.70;;;9.70;71.20;;;;;;5094682;28;20125;-73
2021/10/29 07:56:28;;;;;;;20.35;10.27;;;9.80;70.30;;;;;;5094083;28;20451;-75
2021/10/29 07:58:54;;;;;;;15.57;9.90;;;9.80;71.00;;;;;;5094193;28;20074;-75
2021/10/29 08:01:20;;;;;;;12.48;8.38;;;9.90;70.40;;;;;;5094321;28;20432;-77
2021/10/29 08:03:46;;;;;;;10.00;5.63;;;10.00;70.10;;;;;;5076230;28;20470;-83
2021/10/29 08:06:11;;;;;;;8.55;5.78;;;10.00;69.30;;;;;;5076447;28;20071;-92
2021/10/29 08:08:37;;;;;;;14.85;7.47;;;10.10;71.40;;;;;;5095168;28;20082;-83
2021/10/29 08:11:03;;;;;;;11.02;6.32;;;10.30;70.40;;;;;;5094332;28;20032;-83
2021/10/29 08:13:28;;;;;;;9.68;5.88;;;10.40;69.60;;;;;;5093996;28;20140;-82
2021/10/29 08:15:58;;;;;;;11.18;6.22;;;10.30;69.50;;;;;;5093788;28;20459;-82
2021/10/29 08:18:24;;;;;;;12.73;6.35;;;10.40;69.20;;;;;;5093983;28;20026;-82
2021/10/29 08:20:51;;;;;;;13.45;7.20;;;10.50;68.80;;;;;;5093985;28;20054;-83
2021/10/29 08:23:17;;;;;;;11.77;6.57;;;10.70;69.40;;;;;;5094023;28;20066;-83
2021/10/29 08:25:43;;;;;;;10.13;6.45;;;10.80;69.40;;;;;;5093578;28;20020;-82
2021/10/29 08:28:09;;;;;;;10.48;6.50;;;11.00;69.10;;;;;;5094077;28;20035;-85
2021/10/29 08:30:34;;;;;;;8.85;5.22;;;10.90;69.40;;;;;;5094753;28;20099;-73
2021/10/29 08:33:01;;;;;;;9.65;5.80;;;11.10;69.30;;;;;;5094393;28;20484;-73
2021/10/29 08:35:27;;;;;;;8.68;5.25;;;11.10;68.60;;;;;;5093706;28;20028;-73
2021/10/29 08:37:53;;;;;;;6.75;5.00;;;11.20;67.90;;;;;;5093750;28;20519;-73
2021/10/29 08:40:21;;;;;;;7.07;4.78;;;11.40;67.30;;;;;;5093695;28;20132;-73
2021/10/29 08:42:48;;;;;;;7.97;5.28;;;11.50;66.80;;;;;;5093528;28;20103;-73
2021/10/29 08:45:15;;;;;;;11.88;5.82;;;11.80;66.40;;;;;;5093581;28;20016;-74
2021/10/29 08:47:41;;;;;;;8.48;5.50;;;12.00;65.70;;;;;;5093388;28;20020;-74
2021/10/29 08:50:17;;;;;;;10.00;5.82;;;12.20;64.90;;;;;;5092980;28;20428;-77
2021/10/29 08:52:48;;;;;;;7.05;5.32;;;12.30;64.50;;;;;;5093304;28;20030;-77
2021/10/29 08:55:17;;;;;;;7.20;5.05;;;12.50;64.00;;;;;;5093188;28;20019;-74
2021/10/29 08:57:47;;;;;;;9.02;5.03;;;12.70;62.90;;;;;;5092527;28;20036;-74
2021/10/29 09:00:17;;;;;;;12.15;5.97;;;12.90;61.90;;;;;;5093239;28;20044;-74
2021/10/29 09:02:54;;;;;;;9.05;5.60;;;13.10;59.70;;;;;;5092994;28;20031;-74
2021/10/29 09:05:30;;;;;;;13.95;5.85;;;13.30;58.80;;;;;;5093077;28;20374;-80
2021/10/29 09:08:13;;;;;;;8.45;5.35;;;13.30;58.30;;;;;;5092799;28;20468;-74
2021/10/29 09:33:00;;;;;;;7.97;5.38;;;15.50;53.80;;;;;;5092752;28;20673;-76
2021/10/29 09:35:31;;;;;;;11.52;5.40;;;15.70;53.90;;;;;;5092583;28;20032;-78
2021/10/29 09:38:14;;;;;;;6.68;4.88;;;15.60;53.00;;;;;;5092217;28;20040;-76
2021/10/29 09:40:53;;;;;;;8.60;4.70;;;15.50;51.80;;;;;;5092254;28;20122;-78
2021/10/29 09:43:20;;;;;;;10.45;5.25;;;15.50;52.00;;;;;;5092234;28;20024;-77
2021/10/29 09:45:57;;;;;;;9.40;5.70;;;15.70;51.90;;;;;;5092343;28;20024;-76
2021/10/29 09:48:31;;;;;;;9.10;5.82;;;15.70;52.50;;;;;;5092368;28;20047;-75
2021/10/29 09:50:58;;;;;;;11.18;6.03;;;15.90;53.00;;;;;;5092005;28;20118;-73
2021/10/29 09:53:47;;;;;;;14.40;7.43;;;16.10;52.30;;;;;;5092427;28;20552;-74
2021/10/29 09:58:52;;;;;;;7.70;6.07;;;16.00;51.80;;;;;;5092270;28;20047;-74
2021/10/29 10:01:19;;;;;;;9.18;6.25;;;16.20;52.10;;;;;;5092093;28;20409;-74
2021/10/29 10:03:48;;;;;;;9.77;6.85;;;16.30;51.80;;;;;;5096026;28;20023;-74
2021/10/29 10:06:14;;;;;;;9.95;7.18;;;16.50;51.00;;;;;;5096182;28;20098;-74
2021/10/29 10:08:40;;;;;;;10.95;7.40;;;16.70;49.80;;;;;;5095998;28;20186;-77
2021/10/29 10:11:08;;;;;;;11.50;6.57;;;16.60;48.30;;;;;;5096210;28;20050;-75
2021/10/29 10:13:35;;;;;;;9.70;6.13;;;16.60;47.70;;;;;;5096140;28;20020;-74
2021/10/29 10:16:02;;;;;;;9.00;6.55;;;16.70;47.10;;;;;;5096028;28;20020;-74
2021/10/29 10:18:29;;;;;;;9.05;5.93;;;16.50;48.30;;;;;;5095879;28;20028;-74
2021/10/29 10:20:58;;;;;;;10.80;6.25;;;16.60;48.20;;;;;;5095964;28;20062;-74
2021/10/29 10:23:33;;;;;;;13.40;6.93;;;16.90;48.30;;;;;;5095902;28;20420;-77
2021/10/29 10:26:20;;;;;;;12.20;6.75;;;17.10;48.50;;;;;;5095989;28;20051;-76
2021/10/29 10:45:56;;;;;;;9.00;7.03;;;17.90;45.40;;;;;;5095927;28;20055;-76
2021/10/29 10:48:30;;;;;;;9.32;6.97;;;18.10;43.80;;;;;;5095502;28;20020;-75
2021/10/29 10:54:39;;;;;;;11.82;7.60;;;18.50;44.00;;;;;;5095716;28;20043;-75
2021/10/29 11:00:16;;;;;;;11.88;8.02;;;19.20;39.80;;;;;;5094968;28;20016;-75
2021/10/29 11:05:39;;;;;;;10.88;8.35;;;19.30;38.90;;;;;;5095205;28;20023;-75
2021/10/29 11:11:05;;;;;;;9.05;6.82;;;19.30;40.00;;;;;;5095088;28;20114;-75
2021/10/29 11:13:43;;;;;;;9.23;7.07;;;19.20;38.90;;;;;;5076333;28;20371;-74
2021/10/29 11:16:09;;;;;;;10.63;7.72;;;19.40;38.20;;;;;;5095163;28;20372;-76
2021/10/29 11:18:36;;;;;;;12.30;7.82;;;19.80;37.80;;;;;;5095131;28;20056;-74
2021/10/29 11:21:12;;;;;;;9.45;6.35;;;20.30;37.00;;;;;;5095235;28;20024;-74
2021/10/29 11:23:47;;;;;;;9.90;5.97;;;20.60;34.50;;;;;;5095047;28;20107;-75
2021/10/29 11:26:25;;;;;;;;;;;20.80;33.30;;;;;;5095184;28;20077;-74
2021/10/29 11:28:55;;;;;;;9.00;5.53;;;21.10;33.50;;;;;;5094992;28;19911;-74
2021/10/29 11:31:29;;;;;;;8.35;5.97;;;21.50;32.30;;;;;;5110048;28;20008;-74
2021/10/29 11:33:58;;;;;;;11.40;5.97;;;21.90;31.30;;;;;;5117341;28;20468;-73
2021/10/29 11:36:29;;;;;;;7.97;6.30;;;22.20;31.30;;;;;;5116793;28;20024;-76
2021/10/29 11:38:56;;;;;;;7.10;5.90;;;22.40;31.20;;;;;;5094685;28;20130;-75
2021/10/29 11:41:24;;;;;;;10.48;6.30;;;22.70;31.20;;;;;;5094688;28;20028;-76
2021/10/29 11:43:51;;;;;;;9.15;6.57;;;22.70;31.00;;;;;;5094532;28;20036;-76
2021/10/29 11:46:17;;;;;;;12.15;6.68;;;22.90;30.70;;;;;;5094689;28;20412;-76
2021/10/29 11:48:51;;;;;;;10.98;5.85;;;23.10;30.30;;;;;;5094658;28;20020;-78
2021/10/29 11:51:18;;;;;;;9.10;6.65;;;23.30;29.60;;;;;;5094547;28;20035;-75
2021/10/29 11:53:49;;;;;;;8.38;6.03;;;23.60;29.00;;;;;;5094198;28;20039;-79
2021/10/29 11:56:26;;;;;;;8.45;6.00;;;23.80;28.00;;;;;;5094339;28;20381;-80
2021/10/29 11:59:15;;;;;;;9.77;7.03;;;23.50;26.80;;;;;;5094526;28;20084;-79
2021/10/29 12:02:04;;;;;;;10.80;5.50;;;23.50;27.90;;;;;;5094385;28;20024;-75
2021/10/29 12:07:21;;;;;;;8.23;5.28;;;22.90;28.20;;;;;;5094340;28;20055;-74
2021/10/29 12:09:55;;;;;;;5.70;4.75;;;22.70;27.10;;;;;;5094144;28;20046;-75
2021/10/29 12:12:26;;;;;;;6.32;4.32;;;22.60;27.70;;;;;;5094604;28;20407;-74
2021/10/29 12:14:55;;;;;;;7.82;5.38;;;23.20;27.10;;;;;;5093914;28;20028;-75
2021/10/29 12:17:30;;;;;;;7.97;4.88;;;23.50;26.90;;;;;;5093849;28;20057;-75
2021/10/29 12:19:59;;;;;;;6.68;4.90;;;23.90;26.20;;;;;;5093991;28;20019;-79
2021/10/29 12:22:34;;;;;;;7.15;4.30;;;24.30;25.20;;;;;;5093996;28;20024;-79
2021/10/29 12:25:56;;;;;;;7.35;4.75;;;24.20;24.90;;;;;;5093344;28;20028;-76
2021/10/29 12:27:58;;;;;;;8.02;5.07;;;24.60;25.10;;;;;;5076144;28;20542;-75
2021/10/29 12:30:42;;;;;;;5.35;4.50;;;24.60;23.80;;;;;;5093665;28;20073;-76
2021/10/29 13:03:46;;;;;;;5.65;3.40;;;22.80;26.20;;;;;;5093052;28;20089;-77
2021/10/29 13:06:17;;;;;;;7.35;4.13;;;22.90;26.60;;;;;;5075223;28;20024;-73
2021/10/29 13:08:47;;;;;;;5.15;3.50;;;23.00;26.40;;;;;;5093135;28;20121;-78
2021/10/29 13:11:14;;;;;;;4.78;3.80;;;23.20;26.30;;;;;;5093113;28;20035;-79
2021/10/29 13:13:55;;;;;;;6.15;4.03;;;23.60;26.10;;;;;;5092894;28;20024;-75
2021/10/29 13:16:21;;;;;;;5.60;3.75;;;24.60;24.70;;;;;;5092797;28;20115;-76
2021/10/29 13:34:23;;;;;;;5.18;3.22;;;25.90;19.80;;;;;;5092581;28;20024;-76
2021/10/29 13:50:58;;;;;;;4.05;2.72;;;28.20;16.90;;;;;;5092093;28;20040;-75
2021/10/29 13:53:44;;;;;;;6.70;3.95;;;28.10;16.30;;;;;;5092387;28;20048;-74
2021/10/29 13:56:17;;;;;;;4.63;2.00;;;28.20;16.10;;;;;;5092269;28;20028;-75
2021/10/29 14:01:37;;;;;;;2.20;1.75;;;31.30;17.40;;;;;;5092450;28;20103;-75
2021/10/29 14:28:46;;;;;;;2.67;1.70;;;40.40;6.60;;;;;;5092314;28;20502;-75
2021/10/29 14:31:35;;;;;;;2.10;1.55;;;40.90;5.10;;;;;;5092337;28;20055;-76
2021/10/29 14:34:11;;;;;;;1.52;1.15;;;40.80;4.30;;;;;;5091880;28;20031;-74
2021/10/29 14:39:37;;;;;;;2.42;2.15;;;41.00;4.20;;;;;;5091533;28;20052;-76
2021/10/29 14:44:46;;;;;;;2.67;1.95;;;38.80;4.30;;;;;;5091899;28;20032;-76
2021/10/29 14:50:12;;;;;;;3.85;2.85;;;39.30;4.70;;;;;;5094109;28;20039;-75
2021/10/29 15:41:21;;;;;;;1.67;1.33;;;26.60;18.10;;;;;;5095015;28;20042;-75
2021/10/29 15:44:04;;;;;;;2.47;1.77;;;24.90;20.20;;;;;;5094866;28;20024;-74
2021/10/29 15:49:22;;;;;;;3.50;2.83;;;22.20;25.90;;;;;;5094905;28;20028;-74
2021/10/29 15:51:58;;;;;;;2.00;1.70;;;21.30;28.40;;;;;;5094584;28;20029;-75
2021/10/29 15:54:24;;;;;;;2.58;1.88;;;20.30;30.90;;;;;;5094447;28;20047;-75
2021/10/29 16:17:35;;;;;;;11.38;4.28;;;15.50;44.90;;;;;;5093719;28;20039;-75
2021/10/29 16:20:03;;;;;;;10.45;5.30;;;15.10;46.40;;;;;;5093702;28;20070;-75
2021/10/29 16:22:32;;;;;;;11.98;6.20;;;14.70;47.30;;;;;;5093537;28;20031;-74
2021/10/29 16:27:46;;;;;;;11.35;4.95;;;14.20;48.50;;;;;;5093566;28;20154;-75
2021/10/29 16:30:12;;;;;;;7.25;3.80;;;14.00;49.60;;;;;;5093363;28;20024;-77
2021/10/29 16:35:19;;;;;;;11.35;3.85;;;13.60;51.60;;;;;;5093345;28;20081;-76
2021/10/29 16:37:46;;;;;;;6.10;2.92;;;13.50;51.40;;;;;;5093006;28;20043;-76
2021/10/29 16:40:13;;;;;;;5.00;3.03;;;13.30;51.20;;;;;;5093315;28;20127;-76
2021/10/29 16:42:39;;;;;;;8.65;4.03;;;13.10;52.30;;;;;;5093124;28;20095;-76
2021/10/29 16:45:07;;;;;;;8.63;4.40;;;13.00;52.80;;;;;;5075064;28;20035;-75
2021/10/29 16:47:33;;;;;;;11.35;4.63;;;12.90;53.50;;;;;;5093397;28;20027;-77
2021/10/29 16:49:58;;;;;;;9.82;4.65;;;12.80;53.70;;;;;;5093470;28;20020;-75
2021/10/29 16:52:26;;;;;;;24.55;10.90;;;12.80;53.50;;;;;;5093346;28;20035;-75
2021/10/29 16:54:52;;;;;;;16.30;8.38;;;12.80;53.40;;;;;;5093284;28;20016;-75
2021/10/29 16:57:19;;;;;;;11.20;5.68;;;12.80;53.40;;;;;;5093155;28;20114;-74
2021/10/29 16:59:44;;;;;;;7.63;4.70;;;12.70;53.80;;;;;;5093211;28;20524;-76
2021/10/29 17:02:11;;;;;;;10.13;3.92;;;12.70;53.80;;;;;;5093197;28;20032;-74
2021/10/29 17:04:37;;;;;;;10.80;5.65;;;12.60;54.50;;;;;;5093231;28;20471;-77
2021/10/29 17:07:03;;;;;;;8.73;4.72;;;12.50;54.00;;;;;;5093004;28;20031;-76
2021/10/29 17:09:29;;;;;;;7.60;4.07;;;12.50;54.50;;;;;;5093072;28;20024;-77
2021/10/29 17:11:55;;;;;;;9.77;4.45;;;12.40;54.60;;;;;;5092609;28;20032;-76
2021/10/29 17:14:20;;;;;;;7.15;4.38;;;12.30;54.80;;;;;;5093057;28;20465;-76
2021/10/29 17:16:47;;;;;;;12.02;5.63;;;12.20;55.20;;;;;;5093141;28;20110;-76
2021/10/29 17:19:13;;;;;;;10.43;5.60;;;12.10;55.60;;;;;;5093257;28;20464;-75
2021/10/29 17:21:38;;;;;;;8.73;5.25;;;12.00;56.30;;;;;;5093116;28;20028;-75
2021/10/29 17:24:04;;;;;;;8.73;4.93;;;11.80;57.10;;;;;;5093139;28;20028;-74
2021/10/29 17:26:32;;;;;;;8.32;5.85;;;11.80;57.70;;;;;;5091509;28;20036;-74
2021/10/29 17:28:59;;;;;;;9.55;6.47;;;11.70;58.20;;;;;;5103748;28;20096;-75
2021/10/29 17:31:25;;;;;;;9.80;6.95;;;11.60;58.60;;;;;;5113217;28;20019;-76
2021/10/29 17:33:50;;;;;;;11.05;7.13;;;11.60;59.00;;;;;;5113023;28;20030;-73
2021/10/29 17:36:17;;;;;;;12.25;6.97;;;11.60;59.10;;;;;;5113136;28;20103;-75
2021/10/29 17:38:44;;;;;;;14.10;7.68;;;11.50;60.10;;;;;;5109862;28;20052;-75
2021/10/29 17:41:10;;;;;;;15.35;8.80;;;11.50;60.70;;;;;;5092845;28;20027;-75